M I D A S
Marine Information and Data Acquisition System
Tripno 1084 of the Zeeleeuw from 2006-05-16 11:20:07 to 2006-05-16 13:52:37
Back to CruiseResearch ActivitiesStationsMapUnderway DataData graphs

EquipmentUnitsComment
TimeDGPSUTC
LatitudeDGPSDM.mWGS84
LongitudeDGPSDM.mWGS84
HeadingGyrodeg 
SOGDGPSknotsSpeed over ground
COGDGPSdegCourse over ground
DepthEcho soundermeters200 kHz
Missing or incorrect values are displayed as -999
Navigation data collected by the RV Zeeleeuw from 2006-05-16 07:39:04 to 2006-05-16 14:03:54
Time Latitude Longitude Heading SOG COG Depth
2006-05-16 07:40:09 51°13.6 2°56.1 121.5 -999 190 -999
2006-05-16 07:41:08 51°13.6 2°56.099 112.5 0.1 191 -999
2006-05-16 07:42:08 51°13.603 2°56.083 107.3 1.8 288 -999
2006-05-16 07:43:08 51°13.618 2°56.006 109.5 3.9 287 -999
2006-05-16 07:44:08 51°13.651 2°55.891 125.2 5.2 301 -999
2006-05-16 07:45:08 51°13.695 2°55.788 123 3.9 303 -999
2006-05-16 07:46:08 51°13.715 2°55.737 101 0.4 355 -999
2006-05-16 07:47:08 51°13.716 2°55.725 68.4 1.6 255 -999
2006-05-16 07:48:08 51°13.721 2°55.713 33.7 1.5 19 -999
2006-05-16 07:49:08 51°13.76 2°55.699 338.6 3.3 335 9.1
2006-05-16 07:50:08 51°13.82 2°55.646 332 5.1 329 -999
2006-05-16 07:51:07 51°13.923 2°55.561 340.2 8.1 336 9.3
2006-05-16 07:52:08 51°14.056 2°55.475 341.2 8.6 337 9.4
2006-05-16 07:53:08 51°14.184 2°55.372 334.8 8.6 329 9.3
2006-05-16 07:54:08 51°14.287 2°55.221 311 8.5 307 9.3
2006-05-16 07:55:07 51°14.371 2°55.041 313 8.7 308 9.3
2006-05-16 07:56:08 51°14.446 2°54.82 299.8 10.6 291 9.9
2006-05-16 07:57:08 51°14.512 2°54.522 296.8 12.5 289 9.8
2006-05-16 07:58:08 51°14.586 2°54.205 296.3 13.1 286 9.8
2006-05-16 07:59:08 51°14.624 2°53.854 285.2 13.5 279 9.4
2006-05-16 08:00:08 51°14.675 2°53.516 292.1 13 284 7.7
2006-05-16 08:01:07 51°14.684 2°53.174 271.4 13.3 265 7.6
2006-05-16 08:02:08 51°14.677 2°52.814 281.6 13.4 275 7.8
2006-05-16 08:03:08 51°14.667 2°52.46 265.3 13.5 259 8.1
2006-05-16 08:04:08 51°14.627 2°52.107 269.9 13.5 265 8.1
2006-05-16 08:05:08 51°14.597 2°51.752 259.1 13.6 253 8.3
2006-05-16 08:06:08 51°14.523 2°51.411 260.9 13.6 256 8.3
2006-05-16 08:07:08 51°14.484 2°51.054 266.2 13.7 260 8.4
2006-05-16 08:08:08 51°14.422 2°50.704 261.2 13.7 257 8.6
2006-05-16 08:09:08 51°14.381 2°50.344 263.9 13.9 257 8.8
2006-05-16 08:10:08 51°14.327 2°49.986 265.2 13.9 259 9
2006-05-16 08:11:08 51°14.28 2°49.624 263.4 14 257 9.7
2006-05-16 08:12:08 51°14.223 2°49.266 264.1 13.9 258 10
2006-05-16 08:13:08 51°14.173 2°48.905 262.8 13.9 256 10.1
2006-05-16 08:14:09 51°14.122 2°48.543 264 14 257 10.1
2006-05-16 08:15:09 51°14.07 2°48.231 263.4 9.5 257 10.2
2006-05-16 08:16:09 51°14.053 2°48.058 276.9 4.9 265 10.3
2006-05-16 08:17:09 51°14.045 2°48.007 325 1.1 217 10.3
2006-05-16 08:18:09 51°14.031 2°47.989 345.7 1.1 224 -999
2006-05-16 08:19:09 51°14.018 2°47.971 353 0.9 223 10.3
2006-05-16 08:20:09 51°14.007 2°47.954 0.1 0.9 225 10.3
2006-05-16 08:21:08 51°13.997 2°47.938 5.5 0.8 223 10.3
2006-05-16 08:22:09 51°13.986 2°47.921 5.4 0.9 230 10.3
2006-05-16 08:23:07 51°13.977 2°47.903 1.1 0.9 233 10.2
2006-05-16 08:24:09 51°13.968 2°47.885 357.9 0.9 235 10.3
2006-05-16 08:25:09 51°13.96 2°47.867 351.7 0.8 234 10.2
2006-05-16 08:26:09 51°13.953 2°47.849 348 0.9 268 10.3
2006-05-16 08:27:08 51°14.016 2°47.821 12.6 6.1 1 10.2
2006-05-16 08:28:08 51°14.084 2°47.919 75 5.1 75 10.4
2006-05-16 08:29:09 51°14.093 2°48.028 83.8 3.5 87 10.3
2006-05-16 08:30:09 51°14.091 2°48.117 85.9 3.3 94 10.3
2006-05-16 08:31:09 51°14.086 2°48.201 89.3 3.1 99 10.3
2006-05-16 08:32:08 51°14.07 2°48.279 97.2 3.1 108 10.3
2006-05-16 08:33:08 51°14.047 2°48.356 104.2 3.2 117 10.2
2006-05-16 08:34:08 51°14.03 2°48.434 93 3.1 102 10.3
2006-05-16 08:35:09 51°14.04 2°48.519 65.5 3.4 67 10.1
2006-05-16 08:36:08 51°14.067 2°48.596 61 3.1 61 10.2
2006-05-16 08:37:08 51°14.094 2°48.663 57.7 2.9 55 10.2
2006-05-16 08:38:09 51°14.124 2°48.725 55.1 2.9 50 10.4
2006-05-16 08:39:07 51°14.154 2°48.782 53.5 2.9 49 10.5
2006-05-16 08:40:09 51°14.187 2°48.842 54.1 2.9 50 10.4
2006-05-16 08:41:08 51°14.217 2°48.9 54.7 2.9 49 10.3
2006-05-16 08:42:09 51°14.248 2°48.959 55.1 2.8 51 10.5
2006-05-16 08:43:08 51°14.276 2°49.017 56.6 2.9 55 10.6
2006-05-16 08:44:09 51°14.306 2°49.079 55.8 2.9 50 10.6
2006-05-16 08:45:08 51°14.337 2°49.141 55.1 3 52 10.5
2006-05-16 08:46:09 51°14.37 2°49.202 53.5 3 48 10.6
2006-05-16 08:47:09 51°14.403 2°49.262 54 3 48 10.7
2006-05-16 08:48:06 51°14.433 2°49.319 54.1 3 47 10.7
2006-05-16 08:49:09 51°14.466 2°49.382 55 3 51 10.7
2006-05-16 08:50:08 51°14.496 2°49.442 55.1 2.9 53 10.8
2006-05-16 08:51:09 51°14.527 2°49.504 54.7 2.9 50 10.8
2006-05-16 08:52:09 51°14.558 2°49.564 54.7 3 49 10.8
2006-05-16 08:53:08 51°14.589 2°49.623 54.7 2.9 50 10.9
2006-05-16 08:54:09 51°14.623 2°49.68 49.1 3 43 11
2006-05-16 08:55:08 51°14.661 2°49.73 47.6 3 40 10.9
2006-05-16 08:56:08 51°14.699 2°49.781 47.5 3 41 11.1
2006-05-16 08:57:08 51°14.737 2°49.831 47.9 3 40 11.1
2006-05-16 08:58:09 51°14.774 2°49.883 49.3 3 41 11.1
2006-05-16 08:59:08 51°14.811 2°49.935 49.6 2.9 41 11.2
2006-05-16 09:00:08 51°14.848 2°49.989 50 2.9 44 11.2
2006-05-16 09:01:09 51°14.882 2°50.041 50.1 2.9 43 11.3
2006-05-16 09:02:08 51°14.917 2°50.092 49.9 3 43 11.3
2006-05-16 09:03:08 51°14.941 2°50.166 70.3 3.3 72 11.4
2006-05-16 09:04:09 51°14.932 2°50.253 109.9 4 129 11.3
2006-05-16 09:05:09 51°14.855 2°50.283 174.1 5.4 189 11.2
2006-05-16 09:06:09 51°14.779 2°50.202 229.4 5.8 232 11.1
2006-05-16 09:07:09 51°14.752 2°50.07 280.3 4.9 267 11.1
2006-05-16 09:08:09 51°14.759 2°49.955 298.1 3.7 278 11.2
2006-05-16 09:09:08 51°14.768 2°49.874 308.7 2.8 279 11.3
2006-05-16 09:10:09 51°14.773 2°49.811 311.8 2.2 276 11.3
2006-05-16 09:11:08 51°14.777 2°49.751 303.4 3.2 282 11.3
2006-05-16 09:12:09 51°14.824 2°49.621 333 6.6 320 11.5
2006-05-16 09:13:09 51°14.898 2°49.57 6.1 3.7 347 11.7
2006-05-16 09:14:09 51°14.949 2°49.561 17.9 2.7 356 11.7
2006-05-16 09:15:09 51°14.994 2°49.557 17.7 2.7 356 11.8
2006-05-16 09:16:09 51°15.039 2°49.554 18.1 2.7 356 11.8
2006-05-16 09:17:09 51°15.083 2°49.55 16.5 2.7 356 11.9
2006-05-16 09:18:08 51°15.127 2°49.543 14.1 2.8 352 11.9
2006-05-16 09:19:09 51°15.172 2°49.54 28.4 2.4 11 12
2006-05-16 09:20:09 51°15.194 2°49.601 83.9 3.4 92 12
2006-05-16 09:21:09 51°15.161 2°49.701 118.6 4.8 131 12
2006-05-16 09:22:08 51°15.087 2°49.764 154.9 5.5 168 11.9
2006-05-16 09:23:09 51°15.004 2°49.735 204 4.8 210 11.8
2006-05-16 09:24:08 51°14.95 2°49.656 233.8 4 232 11.9
2006-05-16 09:25:09 51°14.915 2°49.581 238.9 3.1 233 11.8
2006-05-16 09:26:08 51°14.888 2°49.524 241.4 2.5 235 11.8
2006-05-16 09:27:09 51°14.869 2°49.437 286.3 4.6 272 11.8
2006-05-16 09:28:09 51°14.915 2°49.373 18.9 3.4 4 11.8
2006-05-16 09:29:08 51°14.938 2°49.451 87.2 4.5 94 11.9
2006-05-16 09:30:08 51°14.885 2°49.529 144.4 4.3 158 12
2006-05-16 09:31:08 51°14.821 2°49.542 163.1 3.7 180 11.8
2006-05-16 09:32:09 51°14.761 2°49.528 176.4 3.4 194 11.7
2006-05-16 09:33:09 51°14.711 2°49.494 195.6 3.1 209 11.6
2006-05-16 09:34:09 51°14.67 2°49.451 204.9 2.9 215 11.6
2006-05-16 09:35:09 51°14.629 2°49.404 209.4 3.1 216 11.5
2006-05-16 09:36:09 51°14.588 2°49.353 215.3 3.2 219 11.4
2006-05-16 09:37:08 51°14.547 2°49.297 218.5 3.2 221 11.4
2006-05-16 09:38:09 51°14.507 2°49.24 218.8 3.2 221 11.3
2006-05-16 09:39:09 51°14.468 2°49.184 218.8 3.1 222 11.3
2006-05-16 09:40:09 51°14.43 2°49.128 221.3 3.1 223 11.2
2006-05-16 09:41:09 51°14.392 2°49.073 221.6 3 221 11.2
2006-05-16 09:42:09 51°14.356 2°49.019 221.9 3 223 11.1
2006-05-16 09:43:09 51°14.319 2°48.964 223 3 223 11.1
2006-05-16 09:44:09 51°14.284 2°48.909 223.8 2.9 224 11.1
2006-05-16 09:45:09 51°14.248 2°48.856 223 2.9 225 11.1
2006-05-16 09:46:09 51°14.212 2°48.805 221.5 2.8 220 11
2006-05-16 09:47:09 51°14.177 2°48.754 222 2.9 221 11
2006-05-16 09:48:09 51°14.14 2°48.699 228.6 3.4 225 10.9
2006-05-16 09:49:09 51°14.104 2°48.615 245.3 4.1 239 10.9
2006-05-16 09:50:09 51°14.07 2°48.516 254 4.3 247 10.9
2006-05-16 09:51:09 51°14.06 2°48.411 285.9 3.9 269 11
2006-05-16 09:52:09 51°14.069 2°48.312 301.9 3.7 283 10.9
2006-05-16 09:53:09 51°14.093 2°48.228 330.5 3.2 306 11
2006-05-16 09:54:09 51°14.132 2°48.185 5 2.8 342 11.1
2006-05-16 09:55:09 51°14.172 2°48.188 35.9 1.7 18 11.1
2006-05-16 09:56:09 51°14.186 2°48.205 51.5 0.7 51 11.1
2006-05-16 09:57:09 51°14.191 2°48.213 48.7 0.3 59 11.2
2006-05-16 09:58:09 51°14.197 2°48.218 50.1 1 47 11.1
2006-05-16 09:59:09 51°14.213 2°48.323 75.9 6.8 77 11
2006-05-16 10:00:09 51°14.253 2°48.564 74.2 10.2 74 11
2006-05-16 10:01:09 51°14.294 2°48.827 78.8 10.4 81 11.1
2006-05-16 10:02:09 51°14.325 2°49.109 76.9 11.2 78 11.1
2006-05-16 10:03:08 51°14.36 2°49.398 80.7 11.6 80 11
2006-05-16 10:04:09 51°14.393 2°49.703 84.1 11.6 84 10.9
2006-05-16 10:05:08 51°14.418 2°49.999 82.9 11.4 84 10.5
2006-05-16 10:06:09 51°14.445 2°50.305 82.5 11.4 83 10.1
2006-05-16 10:07:09 51°14.475 2°50.605 79.9 11.4 80 9.8
2006-05-16 10:08:09 51°14.503 2°50.906 83.3 11.5 84 9.6
2006-05-16 10:09:09 51°14.532 2°51.204 82.6 11.4 84 9.3
2006-05-16 10:10:09 51°14.554 2°51.506 81.1 11.5 82 9.2
2006-05-16 10:11:09 51°14.577 2°51.81 84.4 11.6 85 9.2
2006-05-16 10:12:09 51°14.582 2°52.119 88 11.7 88 8.9
2006-05-16 10:13:08 51°14.592 2°52.423 85.8 11.7 87 8.8
2006-05-16 10:14:09 51°14.591 2°52.74 87.8 11.7 88 8.6
2006-05-16 10:15:09 51°14.58 2°52.998 95 8.6 96 8.6
2006-05-16 10:16:09 51°14.571 2°53.213 92.1 8.1 96 8.4
2006-05-16 10:17:09 51°14.556 2°53.426 95.5 8.1 97 8.4
2006-05-16 10:18:09 51°14.539 2°53.639 93.6 8.1 94 9.4
2006-05-16 10:19:09 51°14.52 2°53.816 100.9 5.6 105 9.4
2006-05-16 10:20:09 51°14.499 2°53.935 98 4.1 101 9.4
2006-05-16 10:21:09 51°14.493 2°54.041 87.5 5.4 90 9.4
2006-05-16 10:22:09 51°14.496 2°54.256 88.9 9.3 88 10.5
2006-05-16 10:23:09 51°14.476 2°54.512 99.8 9.9 98 10.1
2006-05-16 10:24:09 51°14.445 2°54.772 105.2 10 105 10.3
2006-05-16 10:25:09 51°14.385 2°55.024 115.7 10.2 116 10.4
2006-05-16 10:26:09 51°14.287 2°55.233 137.3 9.4 133 -999
2006-05-16 10:27:08 51°14.175 2°55.375 152.4 8.1 148 10.3
2006-05-16 10:28:09 51°14.061 2°55.476 155.3 7.2 152 10.3
2006-05-16 10:29:09 51°13.962 2°55.546 161.6 6.2 157 -999
2006-05-16 10:30:09 51°13.871 2°55.608 162.1 5.9 157 10.9
2006-05-16 10:31:08 51°13.791 2°55.66 161.4 4.8 157 10.2
2006-05-16 10:32:08 51°13.729 2°55.727 139.1 4.4 133 10.2
2006-05-16 10:33:08 51°13.685 2°55.821 129.7 4.4 123 9.7
2006-05-16 10:34:09 51°13.647 2°55.915 127.8 3.8 124 -999
2006-05-16 10:35:09 51°13.622 2°55.992 114.8 2.9 110 -999
2006-05-16 10:36:09 51°13.608 2°56.058 113 2.6 107 8.4
2006-05-16 10:37:09 51°13.602 2°56.093 107.3 0.3 102 5.3
2006-05-16 10:38:08 51°13.601 2°56.098 107.4 0.3 77 5.2
2006-05-16 10:39:08 51°13.602 2°56.099 113 0.1 30 5.5
2006-05-16 10:40:09 51°13.603 2°56.099 125 -999 296 5.3
2006-05-16 10:41:09 51°13.603 2°56.1 127.8 -999 46 5.3
2006-05-16 10:42:09 51°13.604 2°56.099 127.8 -999 87 -999
2006-05-16 10:43:09 51°13.604 2°56.099 127.8 -999 41 -999
2006-05-16 10:44:08 51°13.604 2°56.099 127.8 -999 47 5.3
2006-05-16 10:45:09 51°13.603 2°56.099 127.8 -999 209 5.6
2006-05-16 10:46:09 51°13.603 2°56.099 127.7 -999 59 5.3
2006-05-16 10:47:09 51°13.603 2°56.099 127.7 -999 46 -999
2006-05-16 10:48:09 51°13.603 2°56.099 127.6 -999 99 5.3
2006-05-16 10:49:09 51°13.603 2°56.099 127.4 -999 1 5.6
2006-05-16 10:50:09 51°13.605 2°56.099 127.3 -999 77 5.4
2006-05-16 10:51:09 51°13.605 2°56.1 127.2 -999 89 -999
2006-05-16 10:52:09 51°13.604 2°56.099 127.1 -999 62 5.3
2006-05-16 10:53:08 51°13.604 2°56.099 127 -999 46 5.3
2006-05-16 10:54:08 51°13.605 2°56.099 126.8 -999 54 5.3
2006-05-16 10:55:09 51°13.605 2°56.1 126.6 -999 39 5.3
2006-05-16 10:56:08 51°13.604 2°56.099 126.5 -999 33 5.4
2006-05-16 10:57:09 51°13.604 2°56.099 126.3 -999 41 5.4
2006-05-16 10:58:08 51°13.604 2°56.099 126.2 -999 56 5.4
2006-05-16 10:59:09 51°13.604 2°56.099 126 -999 46 5.4
2006-05-16 11:00:09 51°13.605 2°56.1 125.9 -999 69 5.4
2006-05-16 11:01:08 51°13.605 2°56.1 125.8 -999 57 5.4
2006-05-16 11:02:08 51°13.605 2°56.1 125.6 -999 54 5.4
2006-05-16 11:03:09 51°13.605 2°56.1 125.5 -999 46 5.4
2006-05-16 11:04:09 51°13.604 2°56.1 125.4 -999 5 5.5
2006-05-16 11:05:09 51°13.604 2°56.1 125.3 -999 340 5.4
2006-05-16 11:06:09 51°13.604 2°56.099 125.1 -999 48 5.5
2006-05-16 11:07:09 51°13.604 2°56.1 125 -999 57 5.5
2006-05-16 11:08:09 51°13.603 2°56.1 124.9 -999 262 -999
2006-05-16 11:09:09 51°13.604 2°56.1 124.8 -999 34 -999
2006-05-16 11:10:09 51°13.604 2°56.099 124.7 -999 60 -999
2006-05-16 11:11:09 51°13.603 2°56.099 124.6 -999 24 -999
2006-05-16 11:12:09 51°13.603 2°56.099 124.5 -999 81 -999
2006-05-16 11:13:09 51°13.603 2°56.099 124.4 -999 74 -999
2006-05-16 11:14:09 51°13.602 2°56.098 124.3 -999 221 -999
2006-05-16 11:15:09 51°13.602 2°56.098 124.2 -999 54 -999
2006-05-16 11:16:09 51°13.601 2°56.098 124.1 -999 47 5.7
2006-05-16 11:17:09 51°13.602 2°56.098 124.1 -999 14 -999
2006-05-16 11:18:09 51°13.602 2°56.098 124.1 -999 75 5.8
2006-05-16 11:19:09 51°13.603 2°56.099 123.3 -999 245 5.9
2006-05-16 11:20:09 51°13.603 2°56.099 125 -999 53 5.8
2006-05-16 11:21:09 51°13.601 2°56.098 113.4 0.1 193 5.9
2006-05-16 11:22:09 51°13.602 2°56.083 103.1 1.8 284 7.3
2006-05-16 11:23:09 51°13.614 2°56.001 108.7 3.6 285 -999
2006-05-16 11:24:09 51°13.643 2°55.903 124.5 4.4 302 -999
2006-05-16 11:25:09 51°13.693 2°55.806 127.8 4.9 309 -999
2006-05-16 11:26:09 51°13.728 2°55.721 112.9 1.9 308 -999
2006-05-16 11:27:09 51°13.733 2°55.727 58.4 1.2 242 -999
2006-05-16 11:28:09 51°13.747 2°55.715 7.5 3.8 -999 5
2006-05-16 11:29:08 51°13.813 2°55.656 324.7 5.4 324 10.9
2006-05-16 11:30:09 51°13.898 2°55.581 337.7 4 336 10.9
2006-05-16 11:31:09 51°13.979 2°55.528 339.6 4.9 339 11
2006-05-16 11:32:09 51°14.05 2°55.482 338.4 4.4 338 11.1
2006-05-16 11:33:09 51°14.119 2°55.434 336.2 5 335 11.1
2006-05-16 11:34:09 51°14.211 2°55.344 324.5 7.6 322 -999
2006-05-16 11:35:09 51°14.307 2°55.194 310.3 8.6 309 11.1
2006-05-16 11:36:09 51°14.397 2°54.999 314.2 9.7 312 11.2
2006-05-16 11:37:08 51°14.523 2°54.792 318 11.8 314 10.1
2006-05-16 11:38:09 51°14.64 2°54.511 305.7 12.8 302 10.2
2006-05-16 11:39:09 51°14.761 2°54.23 305.9 13 300 10.2
2006-05-16 11:40:09 51°14.842 2°53.911 293 13 288 9.9
2006-05-16 11:41:08 51°14.858 2°53.572 273.6 13.1 269 10.2
2006-05-16 11:42:09 51°14.831 2°53.219 265.9 13.2 263 11
2006-05-16 11:43:08 51°14.802 2°52.879 262.7 13.2 258 10.2
2006-05-16 11:44:08 51°14.752 2°52.535 263.2 13.4 259 10.2
2006-05-16 11:45:09 51°14.713 2°52.177 264.9 13.5 260 10.4
2006-05-16 11:46:09 51°14.664 2°51.825 262 13.6 258 10.6
2006-05-16 11:47:09 51°14.615 2°51.474 259 13.5 255 10.8
2006-05-16 11:48:09 51°14.567 2°51.125 262.8 13.5 258 11
2006-05-16 11:49:09 51°14.51 2°50.777 258 13.5 254 11
2006-05-16 11:50:09 51°14.459 2°50.43 258.8 13.4 255 11.3
2006-05-16 11:51:09 51°14.398 2°50.091 259.4 13.2 256 11.6
2006-05-16 11:52:09 51°14.335 2°49.756 254.2 13.2 251 12
2006-05-16 11:53:08 51°14.271 2°49.428 256 13.1 253 12.2
2006-05-16 11:54:09 51°14.207 2°49.088 257 13.2 254 12.3
2006-05-16 11:55:09 51°14.143 2°48.752 257 13.3 254 12.6
2006-05-16 11:56:09 51°14.076 2°48.47 252.1 9.2 249 12.6
2006-05-16 11:57:09 51°14.043 2°48.298 256.2 5.6 251 12.6
2006-05-16 11:58:08 51°14.017 2°48.176 256.6 4.5 253 12.6
2006-05-16 11:59:09 51°13.997 2°48.09 249.4 2 241 12.6
2006-05-16 12:00:09 51°13.991 2°48.082 238.8 0.4 201 12.7
2006-05-16 12:01:09 51°13.986 2°48.08 227.1 0.3 195 12.8
2006-05-16 12:02:09 51°13.98 2°48.082 215.6 0.3 157 12.7
2006-05-16 12:03:09 51°13.974 2°48.085 203.9 0.3 161 12.9
2006-05-16 12:04:09 51°13.969 2°48.09 194.5 0.4 146 12.9
2006-05-16 12:05:09 51°13.962 2°48.097 187.5 0.5 132 12.9
2006-05-16 12:06:09 51°13.957 2°48.106 183.1 0.5 135 12.9
2006-05-16 12:07:09 51°13.951 2°48.115 183 0.5 132 12.9
2006-05-16 12:08:09 51°13.945 2°48.125 181.9 0.5 134 13
2006-05-16 12:09:09 51°13.94 2°48.135 182.1 0.5 130 12.9
2006-05-16 12:10:08 51°13.908 2°48.13 206.2 3.5 203 13
2006-05-16 12:11:09 51°13.867 2°48.074 239.5 3 234 13
2006-05-16 12:12:09 51°13.852 2°47.99 272.6 4.4 274 13
2006-05-16 12:13:09 51°13.916 2°47.897 340.6 5.1 338 13.1
2006-05-16 12:14:09 51°13.99 2°47.891 9.6 4.3 8 13.1
2006-05-16 12:15:09 51°14.059 2°47.921 19.2 4.3 19 13.2
2006-05-16 12:16:09 51°14.125 2°47.964 26 4.3 26 13.2
2006-05-16 12:17:09 51°14.181 2°48.019 36.9 3.8 37 13.2
2006-05-16 12:18:08 51°14.224 2°48.079 43.4 3.2 43 13.2
2006-05-16 12:19:09 51°14.262 2°48.136 44.2 3 44 13.4
2006-05-16 12:20:08 51°14.295 2°48.19 47.7 2.9 47 13.4
2006-05-16 12:21:08 51°14.325 2°48.248 55.1 2.8 55 13.4
2006-05-16 12:22:09 51°14.352 2°48.312 60.2 2.9 58 13.6
2006-05-16 12:23:09 51°14.377 2°48.377 61.5 2.9 59 13.6
2006-05-16 12:24:09 51°14.402 2°48.443 60.8 2.9 57 13.7
2006-05-16 12:25:09 51°14.427 2°48.509 61.5 2.9 58 13.8
2006-05-16 12:26:09 51°14.453 2°48.576 62.5 3 58 13.9
2006-05-16 12:27:09 51°14.478 2°48.644 61.6 3 62 14
2006-05-16 12:28:09 51°14.504 2°48.712 61.4 3 58 14
2006-05-16 12:29:09 51°14.531 2°48.781 60.8 3.1 58 14.1
2006-05-16 12:30:09 51°14.557 2°48.85 60.3 3.1 57 14.1
2006-05-16 12:31:09 51°14.586 2°48.919 59 3.1 57 14.2
2006-05-16 12:32:09 51°14.612 2°48.989 66 3.1 62 14.3
2006-05-16 12:33:09 51°14.634 2°49.063 73.9 3.1 66 14.3
2006-05-16 12:34:09 51°14.653 2°49.14 76.5 3.2 68 14.4
2006-05-16 12:35:09 51°14.672 2°49.218 76.9 3.2 67 14.5
2006-05-16 12:36:09 51°14.691 2°49.297 77 3.2 65 14.5
2006-05-16 12:37:09 51°14.71 2°49.376 77.7 3.2 69 14.5
2006-05-16 12:38:09 51°14.728 2°49.456 78 3.2 70 14.5
2006-05-16 12:39:09 51°14.747 2°49.536 75.8 3.2 68 14.6
2006-05-16 12:40:09 51°14.767 2°49.615 75.2 3.3 67 14.6
2006-05-16 12:41:09 51°14.788 2°49.694 75.4 3.3 68 14.6
2006-05-16 12:42:09 51°14.809 2°49.774 75.1 3.3 66 14.6
2006-05-16 12:43:09 51°14.83 2°49.853 75.3 3.3 67 14.6
2006-05-16 12:44:09 51°14.852 2°49.934 74.1 3.3 65 14.7
2006-05-16 12:45:09 51°14.875 2°50.014 74.6 3.3 66 14.7
2006-05-16 12:46:09 51°14.897 2°50.095 74.7 3.3 66 14.7
2006-05-16 12:47:09 51°14.921 2°50.175 73.9 3.3 65 14.7
2006-05-16 12:48:09 51°14.945 2°50.256 73.8 3.4 65 14.7
2006-05-16 12:49:09 51°14.969 2°50.337 73.5 3.4 65 14.8
2006-05-16 12:50:08 51°14.992 2°50.418 76.5 3.4 67 14.8
2006-05-16 12:51:09 51°15.012 2°50.501 84.7 3.2 71 14.8
2006-05-16 12:52:09 51°15.027 2°50.577 89.2 2.9 76 14.8
2006-05-16 12:53:09 51°15.041 2°50.646 88.4 2.5 72 14.9
2006-05-16 12:54:09 51°15.054 2°50.706 87.5 2.3 72 14.9
2006-05-16 12:55:09 51°15.066 2°50.771 100.5 3.3 81 14.9
2006-05-16 12:56:09 51°15.059 2°50.879 122 4.3 106 14.8
2006-05-16 12:57:09 51°15.038 2°50.985 130.3 4 111 14.8
2006-05-16 12:58:09 51°15.007 2°51.072 151.3 3.7 129 14.6
2006-05-16 12:59:08 51°14.965 2°51.135 170.9 3.3 148 14.5
2006-05-16 13:00:09 51°14.92 2°51.137 221.5 2.5 209 14.3
2006-05-16 13:01:09 51°14.909 2°51.052 271.3 5.8 279 14.3
2006-05-16 13:02:09 51°14.994 2°50.899 324 9.2 333 14.8
2006-05-16 13:03:09 51°15.114 2°50.894 9.7 5.9 18 15
2006-05-16 13:04:09 51°15.183 2°50.963 37.3 4.4 41 15.1
2006-05-16 13:05:09 51°15.227 2°51.039 53.6 3.6 51 15.1
2006-05-16 13:06:09 51°15.259 2°51.111 59.6 3.2 55 15.2
2006-05-16 13:07:09 51°15.286 2°51.176 57 2.9 56 15.2
2006-05-16 13:08:09 51°15.313 2°51.235 51.4 2.7 51 15.2
2006-05-16 13:09:09 51°15.339 2°51.29 44.5 2.5 52 15.4
2006-05-16 13:10:09 51°15.375 2°51.348 27.1 3.8 36 15.3
2006-05-16 13:11:09 51°15.442 2°51.394 358.1 4.6 13 15.4
2006-05-16 13:12:09 51°15.514 2°51.392 328.4 4.1 347 15.4
2006-05-16 13:13:09 51°15.564 2°51.345 290.3 3 310 15.4
2006-05-16 13:14:08 51°15.572 2°51.283 249.3 2.3 255 15.5
2006-05-16 13:15:09 51°15.557 2°51.218 249.3 2.8 253 15.5
2006-05-16 13:16:09 51°15.54 2°51.147 242.4 2.9 243 15.5
2006-05-16 13:17:09 51°15.51 2°51.085 233.7 3 229 15.5
2006-05-16 13:18:09 51°15.474 2°51.018 236.4 3.4 234 15.6
2006-05-16 13:19:09 51°15.441 2°50.944 238.3 3.5 235 15.6
2006-05-16 13:20:09 51°15.407 2°50.87 238.1 3.4 233 15.6
2006-05-16 13:21:09 51°15.374 2°50.8 237.6 3.3 232 15.6
2006-05-16 13:22:09 51°15.342 2°50.732 238.2 3.3 231 15.6
2006-05-16 13:23:09 51°15.308 2°50.667 235.6 3.2 230 15.6
2006-05-16 13:24:09 51°15.273 2°50.605 232.6 3.2 227 15.6
2006-05-16 13:25:09 51°15.231 2°50.551 227.1 3.2 217 15.6
2006-05-16 13:26:09 51°15.185 2°50.506 222.3 3.3 208 15.6
2006-05-16 13:27:09 51°15.137 2°50.464 223.5 3.2 212 15.5
2006-05-16 13:28:09 51°15.093 2°50.419 225.1 3 211 15.4
2006-05-16 13:29:09 51°15.053 2°50.379 225.6 2.8 210 15.4
2006-05-16 13:30:08 51°15.015 2°50.342 225 2.7 212 15.3
2006-05-16 13:31:09 51°14.976 2°50.307 224 2.7 210 15.3
2006-05-16 13:32:08 51°14.938 2°50.274 224 2.6 211 15.2
2006-05-16 13:33:09 51°14.9 2°50.238 224.6 2.6 213 15.2
2006-05-16 13:34:09 51°14.86 2°50.211 210.7 2.7 182 15.2
2006-05-16 13:35:09 51°14.807 2°50.293 131.4 7.3 106 15.1
2006-05-16 13:36:09 51°14.855 2°50.572 74.8 14 69 14.8
2006-05-16 13:37:09 51°14.929 2°50.942 79.3 14.7 75 14.7
2006-05-16 13:38:09 51°14.956 2°51.329 96.5 14.5 90 14.4
2006-05-16 13:39:09 51°14.949 2°51.713 98.8 14.5 91 13.9
2006-05-16 13:40:09 51°14.944 2°52.095 99.1 14.4 92 13.4
2006-05-16 13:41:08 51°14.917 2°52.461 107.9 14 101 13
2006-05-16 13:42:09 51°14.854 2°52.823 113.7 14 105 12.6
2006-05-16 13:43:09 51°14.796 2°53.181 112.8 13.9 106 12.8
2006-05-16 13:44:09 51°14.74 2°53.542 108.7 13.9 103 13.1
2006-05-16 13:45:09 51°14.67 2°53.891 116.6 14 106 13.9
2006-05-16 13:46:09 51°14.593 2°54.241 121.9 13.8 113 14.6
2006-05-16 13:47:09 51°14.505 2°54.585 121.8 14.1 112 14.1
2006-05-16 13:48:09 51°14.411 2°54.926 126.6 14.1 117 13.5
2006-05-16 13:49:09 51°14.301 2°55.177 134.3 8.9 132 13.7
2006-05-16 13:50:08 51°14.216 2°55.322 139.1 6.6 138 13.5
2006-05-16 13:51:08 51°14.134 2°55.407 157.7 5.4 154 13.5
2006-05-16 13:52:08 51°14.053 2°55.465 158 5.3 155 13.5
2006-05-16 13:53:09 51°13.971 2°55.524 158.6 5.2 155 13.5
2006-05-16 13:54:09 51°13.891 2°55.578 158.3 5.4 156 13.5
2006-05-16 13:55:08 51°13.807 2°55.638 156.6 5.7 153 13.4
2006-05-16 13:56:08 51°13.744 2°55.717 139.4 4.3 137 13.5
2006-05-16 13:57:09 51°13.683 2°55.831 127.9 5.8 125 12.8
2006-05-16 13:58:09 51°13.642 2°55.948 117.5 4.4 115 12.1
2006-05-16 13:59:09 51°13.618 2°56.033 113.6 2.9 111 11.6
2006-05-16 14:00:09 51°13.608 2°56.081 115.2 1.2 113 -999
2006-05-16 14:01:09 51°13.604 2°56.094 125.5 0.3 162 8.7
2006-05-16 14:02:09 51°13.602 2°56.098 122.3 0.2 87 8.4
2006-05-16 14:03:09 51°13.601 2°56.098 120.1 -999 18 8.4